createdAt,value
2022-10-20T00:01:19.512Z,4.63
2022-10-20T00:03:47.221Z,5.30
2022-10-20T00:06:26.097Z,8.10
2022-10-20T00:08:53.826Z,7.50
2022-10-20T00:11:22.177Z,4.87
2022-10-20T00:13:51.809Z,6.67
2022-10-20T00:16:19.739Z,5.40
2022-10-20T00:18:46.664Z,6.80
2022-10-20T00:21:16.453Z,5.17
2022-10-20T00:23:43.620Z,4.83
2022-10-20T00:26:26.401Z,8.23
2022-10-20T00:28:54.532Z,4.93
2022-10-20T00:31:23.311Z,4.30
2022-10-20T00:33:50.347Z,4.93
2022-10-20T00:36:18.850Z,3.40
2022-10-20T00:38:46.479Z,4.70
2022-10-20T00:41:14.848Z,4.00
2022-10-20T00:43:48.918Z,3.80
2022-10-20T00:46:19.907Z,4.10
2022-10-20T00:48:49.936Z,4.33
2022-10-20T00:51:19.966Z,5.97
2022-10-20T00:53:48.701Z,4.43
2022-10-20T00:56:15.903Z,4.13
2022-10-20T00:58:43.669Z,4.60
2022-10-20T01:01:12.407Z,4.27
2022-10-20T01:03:51.364Z,3.93
2022-10-20T01:06:22.336Z,4.13
2022-10-20T01:08:52.651Z,3.70
2022-10-20T01:11:57.838Z,5.33
2022-10-20T01:14:40.469Z,5.50
2022-10-20T01:17:07.296Z,5.10
2022-10-20T01:19:58.560Z,4.30
2022-10-20T01:22:39.671Z,4.80
2022-10-20T01:25:32.712Z,3.93
2022-10-20T01:28:06.862Z,3.40
2022-10-20T01:30:42.360Z,4.23
2022-10-20T01:33:13.146Z,4.70
2022-10-20T01:35:58.711Z,5.30
2022-10-20T01:38:25.616Z,5.77
2022-10-20T01:41:22.187Z,4.80
2022-10-20T01:43:50.029Z,5.27
2022-10-20T01:46:19.322Z,4.00
2022-10-20T01:48:47.276Z,4.80
2022-10-20T01:51:14.216Z,4.60
2022-10-20T01:53:41.052Z,4.93
2022-10-20T01:56:20.084Z,4.23
2022-10-20T01:59:27.557Z,7.70
2022-10-20T02:02:43.101Z,7.47
2022-10-20T02:05:13.541Z,7.10
2022-10-20T02:07:43.096Z,6.70
2022-10-20T02:10:19.089Z,5.93
2022-10-20T02:12:50.463Z,5.63
2022-10-20T02:15:21.752Z,7.50
2022-10-20T02:17:52.176Z,7.97
2022-10-20T02:20:20.027Z,10.20
2022-10-20T02:22:48.950Z,9.50
2022-10-20T02:25:16.010Z,7.70
2022-10-20T02:27:47.866Z,10.43
2022-10-20T02:30:17.985Z,6.87
2022-10-20T02:32:52.707Z,5.03
2022-10-20T02:35:29.027Z,8.67
2022-10-20T02:37:56.892Z,5.70
2022-10-20T02:40:24.137Z,5.70
2022-10-20T02:42:50.941Z,3.83
2022-10-20T02:45:17.826Z,3.13
2022-10-20T02:47:44.837Z,3.60
2022-10-20T02:50:13.785Z,4.40
2022-10-20T02:52:41.700Z,2.80
2022-10-20T02:55:11.902Z,4.10
2022-10-20T02:57:39.727Z,6.63
2022-10-20T03:00:07.913Z,4.57
2022-10-20T03:02:34.918Z,4.00
2022-10-20T03:05:01.847Z,5.13
2022-10-20T03:07:28.815Z,5.77
2022-10-20T03:09:55.801Z,6.03
2022-10-20T03:12:22.792Z,6.80
2022-10-20T03:14:49.584Z,7.20
2022-10-20T03:17:16.445Z,5.73
2022-10-20T03:19:43.303Z,8.23
2022-10-20T03:22:10.142Z,9.40
2022-10-20T03:24:36.995Z,9.53
2022-10-20T03:27:04.043Z,9.00
2022-10-20T03:29:30.935Z,13.60
2022-10-20T03:31:57.925Z,9.60
2022-10-20T03:34:24.993Z,5.73
2022-10-20T03:36:51.939Z,5.33
2022-10-20T03:39:18.929Z,26.53
2022-10-20T03:41:45.760Z,6.63
2022-10-20T03:44:12.746Z,5.13
2022-10-20T03:46:39.645Z,5.03
2022-10-20T03:49:06.478Z,9.60
2022-10-20T03:51:33.310Z,6.07
2022-10-20T03:54:00.155Z,6.80
2022-10-20T03:56:26.966Z,6.30
2022-10-20T03:58:53.878Z,5.80
2022-10-20T04:01:24.795Z,4.70
2022-10-20T04:03:51.637Z,10.10
2022-10-20T04:06:18.452Z,6.93
2022-10-20T04:08:45.391Z,8.27
2022-10-20T04:11:12.622Z,6.27
2022-10-20T04:13:39.496Z,7.27
2022-10-20T04:16:06.701Z,7.80
2022-10-20T04:18:33.603Z,6.13
2022-10-20T04:21:00.608Z,4.50
2022-10-20T04:23:27.485Z,7.90
2022-10-20T04:25:54.380Z,10.37
2022-10-20T04:28:21.422Z,5.43
2022-10-20T04:30:48.926Z,10.70
2022-10-20T04:33:16.170Z,7.50
2022-10-20T04:35:43.634Z,7.43
2022-10-20T04:38:10.608Z,8.40
2022-10-20T04:40:37.524Z,7.90
2022-10-20T04:43:04.528Z,6.17
2022-10-20T04:45:31.341Z,6.57
2022-10-20T04:47:58.297Z,8.07
2022-10-20T04:50:25.163Z,8.00
2022-10-20T04:52:52.023Z,6.47
2022-10-20T04:55:21.450Z,6.40
2022-10-20T04:57:48.354Z,6.60
2022-10-20T05:00:15.555Z,6.63
2022-10-20T05:02:42.546Z,6.27
2022-10-20T05:05:09.831Z,6.40
2022-10-20T05:07:36.994Z,6.60
2022-10-20T05:10:04.588Z,7.10
2022-10-20T05:12:31.490Z,7.03
2022-10-20T05:14:58.329Z,7.60
2022-10-20T05:17:25.197Z,6.50
2022-10-20T05:19:52.128Z,8.70
2022-10-20T05:22:18.986Z,5.50
2022-10-20T05:24:45.843Z,5.47
2022-10-20T05:27:12.824Z,7.60
2022-10-20T05:29:40.132Z,6.00
2022-10-20T05:32:07.160Z,10.77
2022-10-20T05:34:34.301Z,5.37
2022-10-20T05:37:01.402Z,5.60
2022-10-20T05:39:28.454Z,6.50
2022-10-20T05:41:55.480Z,6.50
2022-10-20T05:44:22.484Z,4.30
2022-10-20T05:46:49.497Z,2.93
2022-10-20T05:49:17.583Z,3.77
2022-10-20T05:51:46.667Z,3.80
2022-10-20T05:54:14.749Z,4.17
2022-10-20T05:56:42.162Z,4.83
2022-10-20T05:59:10.787Z,4.10
2022-10-20T06:01:48.293Z,3.80
2022-10-20T06:04:24.793Z,5.67
2022-10-20T06:06:52.562Z,6.80
2022-10-20T06:09:21.599Z,5.73
2022-10-20T06:11:51.704Z,5.57
2022-10-20T06:14:19.542Z,5.40
2022-10-20T06:16:49.719Z,3.33
2022-10-20T06:19:16.813Z,5.10
2022-10-20T06:24:24.026Z,3.73
2022-10-20T06:26:52.600Z,4.83
2022-10-20T06:29:19.856Z,5.57
2022-10-20T06:31:57.016Z,7.30
2022-10-20T06:34:25.848Z,5.13
2022-10-20T06:36:53.025Z,5.33
2022-10-20T06:46:17.758Z,6.50
2022-10-20T06:48:45.604Z,4.57
2022-10-20T06:51:19.587Z,6.63
2022-10-20T06:53:46.998Z,6.40
2022-10-20T06:56:18.924Z,9.70
2022-10-20T06:58:52.907Z,9.20
2022-10-20T07:01:24.297Z,7.53
2022-10-20T07:03:53.998Z,6.37
2022-10-20T07:06:23.710Z,6.80
2022-10-20T07:08:53.703Z,4.60
2022-10-20T07:11:23.633Z,6.43
2022-10-20T07:13:50.874Z,4.90
2022-10-20T07:16:20.774Z,6.00
2022-10-20T07:18:48.182Z,4.70
2022-10-20T07:21:20.207Z,5.53
2022-10-20T07:23:48.093Z,5.87
2022-10-20T07:26:27.221Z,9.50
2022-10-20T07:28:57.031Z,5.53
2022-10-20T07:31:26.998Z,5.73
2022-10-20T07:36:59.256Z,5.27
2022-10-20T07:39:26.543Z,5.10
2022-10-20T07:41:53.714Z,4.47
2022-10-20T07:44:29.790Z,6.07
2022-10-20T07:49:52.602Z,4.73
2022-10-20T07:52:19.525Z,7.10
2022-10-20T07:54:46.371Z,9.87
2022-10-20T07:57:13.176Z,5.80
2022-10-20T07:59:40.217Z,3.90
2022-10-20T08:02:07.522Z,6.00
2022-10-20T08:04:34.477Z,5.13
2022-10-20T08:07:01.590Z,7.10
2022-10-20T08:09:28.952Z,5.47
2022-10-20T08:11:56.278Z,6.87
2022-10-20T08:14:33.846Z,4.93
2022-10-20T08:17:03.288Z,5.03
2022-10-20T08:20:02.450Z,6.57
2022-10-20T08:22:27.571Z,6.60
2022-10-20T08:24:54.522Z,4.80
2022-10-20T08:27:21.515Z,6.77
2022-10-20T08:29:59.920Z,6.93
2022-10-20T08:32:27.838Z,6.27
2022-10-20T08:34:54.846Z,4.70
2022-10-20T08:37:21.885Z,6.10
2022-10-20T08:39:48.758Z,5.30
2022-10-20T08:42:16.715Z,2.80
2022-10-20T08:44:46.836Z,4.70
2022-10-20T08:47:29.240Z,14.73
2022-10-20T08:50:04.546Z,6.93
2022-10-20T08:52:31.986Z,6.50
2022-10-20T08:54:59.050Z,7.50
2022-10-20T08:57:33.329Z,9.40
2022-10-20T09:00:13.138Z,7.90
2022-10-20T09:02:40.359Z,8.70
2022-10-20T09:05:10.607Z,11.00
2022-10-20T09:07:40.089Z,8.10
2022-10-20T09:10:25.714Z,16.83
2022-10-20T09:12:53.227Z,11.23
2022-10-20T09:15:21.363Z,10.90
2022-10-20T09:18:13.425Z,11.27
2022-10-20T09:20:46.536Z,8.87
2022-10-20T09:23:39.310Z,7.53
2022-10-20T09:26:30.363Z,10.27
2022-10-20T09:29:19.259Z,12.43
2022-10-20T09:34:40.931Z,6.90
2022-10-20T09:37:08.236Z,6.77
2022-10-20T09:39:54.141Z,9.77
2022-10-20T09:42:34.776Z,9.37
2022-10-20T09:45:19.933Z,10.57
2022-10-20T09:47:53.996Z,12.70
2022-10-20T09:50:29.728Z,10.53
2022-10-20T09:52:58.090Z,10.10
2022-10-20T09:55:32.644Z,8.97
2022-10-20T09:58:02.858Z,10.23
2022-10-20T10:06:40.651Z,7.30
2022-10-20T10:09:31.628Z,8.50
2022-10-20T10:12:05.392Z,10.20
2022-10-20T10:14:44.369Z,6.27
2022-10-20T10:17:19.581Z,10.27
2022-10-20T10:19:53.965Z,4.83
2022-10-20T10:22:24.658Z,3.83
2022-10-20T10:24:57.488Z,5.17
2022-10-20T10:27:27.291Z,4.33
2022-10-20T10:29:55.393Z,5.30
2022-10-20T10:32:30.227Z,5.10
2022-10-20T10:35:11.238Z,7.37
2022-10-20T10:37:42.742Z,7.40
2022-10-20T10:40:33.598Z,5.23
2022-10-20T10:43:32.351Z,4.20
2022-10-20T10:46:02.897Z,6.93
2022-10-20T10:48:51.942Z,5.00
2022-10-20T10:51:51.656Z,7.30
2022-10-20T10:54:40.038Z,9.37
2022-10-20T10:57:29.954Z,9.77
2022-10-20T11:00:01.329Z,11.87
2022-10-20T11:02:48.464Z,10.37
2022-10-20T11:05:27.403Z,9.37
2022-10-20T11:08:06.255Z,10.47
2022-10-20T11:10:51.447Z,10.70
2022-10-20T11:13:33.895Z,8.60
2022-10-20T11:16:12.634Z,8.03
2022-10-20T11:19:10.793Z,8.80
2022-10-20T11:21:40.471Z,11.73
2022-10-20T11:24:19.333Z,9.70
2022-10-20T11:26:50.426Z,14.90
2022-10-20T11:29:30.084Z,15.60
2022-10-20T11:32:11.859Z,14.53
2022-10-20T11:35:10.837Z,16.40
2022-10-20T11:37:48.268Z,11.30
2022-10-20T11:40:22.906Z,10.80
2022-10-20T11:43:18.327Z,14.07
2022-10-20T11:46:11.127Z,13.20
2022-10-20T11:48:59.155Z,11.43
2022-10-20T11:51:30.257Z,11.70
2022-10-20T11:54:09.424Z,7.97
2022-10-20T11:57:04.380Z,9.80
2022-10-20T11:59:49.289Z,9.77
2022-10-20T12:02:38.353Z,10.80
2022-10-20T12:05:32.850Z,11.73
2022-10-20T12:08:32.404Z,8.73
2022-10-20T12:11:22.596Z,11.20
2022-10-20T12:14:03.630Z,6.20
2022-10-20T12:16:56.024Z,8.00
2022-10-20T12:19:27.113Z,7.83
2022-10-20T12:22:04.368Z,11.27
2022-10-20T12:24:40.213Z,10.13
2022-10-20T12:27:10.113Z,12.20
2022-10-20T12:29:36.996Z,12.83
2022-10-20T12:32:24.285Z,19.10
2022-10-20T12:35:24.344Z,11.63
2022-10-20T12:38:18.408Z,15.50
2022-10-20T12:40:59.099Z,12.07
2022-10-20T12:43:49.729Z,9.00
2022-10-20T12:46:22.720Z,10.17
2022-10-20T12:48:56.698Z,15.47
2022-10-20T12:51:36.286Z,10.30
2022-10-20T12:54:15.801Z,12.40
2022-10-20T12:56:43.224Z,13.27
2022-10-20T12:59:34.379Z,14.13
2022-10-20T13:02:11.309Z,11.33
2022-10-20T13:05:13.799Z,15.43
2022-10-20T13:07:46.631Z,11.07
2022-10-20T13:10:31.601Z,9.87
2022-10-20T13:13:01.566Z,9.53
2022-10-20T13:15:54.726Z,9.63
2022-10-20T13:18:32.672Z,12.80
2022-10-20T13:21:01.427Z,11.93
2022-10-20T13:23:40.807Z,10.00
2022-10-20T13:26:23.317Z,8.37
2022-10-20T13:28:53.606Z,8.67
2022-10-20T13:31:31.573Z,12.20
2022-10-20T13:34:24.933Z,11.30
2022-10-20T13:37:19.130Z,8.57
2022-10-20T13:40:11.863Z,14.97
2022-10-20T13:43:00.523Z,10.53
2022-10-20T13:45:46.637Z,11.37
2022-10-20T13:48:22.894Z,7.73
2022-10-20T13:50:58.535Z,11.93
2022-10-20T13:53:29.472Z,6.60
2022-10-20T13:56:04.003Z,9.30
2022-10-20T13:58:31.383Z,9.30
2022-10-20T14:01:02.186Z,12.03
2022-10-20T14:03:31.563Z,9.77
2022-10-20T14:05:59.357Z,11.13
2022-10-20T14:08:28.851Z,8.83
2022-10-20T14:11:04.513Z,13.77
2022-10-20T14:13:34.427Z,12.00
2022-10-20T14:16:05.679Z,14.70
2022-10-20T14:18:39.912Z,15.97
2022-10-20T14:21:18.664Z,15.70
2022-10-20T14:23:49.188Z,10.23
2022-10-20T14:26:20.115Z,12.57
2022-10-20T14:28:49.989Z,11.33
2022-10-20T14:31:20.555Z,12.03
2022-10-20T14:33:49.900Z,17.00
2022-10-20T14:36:23.084Z,11.67
2022-10-20T14:38:53.543Z,10.00
2022-10-20T14:41:26.675Z,13.20
2022-10-20T14:44:03.349Z,21.50
2022-10-20T14:46:49.934Z,20.07
2022-10-20T14:49:26.971Z,15.73
2022-10-20T14:52:03.801Z,15.30
2022-10-20T14:54:39.153Z,16.37
2022-10-20T14:57:09.240Z,13.70
2022-10-20T14:59:49.416Z,21.33
2022-10-20T15:02:28.769Z,20.63
2022-10-20T15:04:55.717Z,15.97
2022-10-20T15:07:27.287Z,16.00
2022-10-20T15:10:01.611Z,8.50
2022-10-20T15:12:38.918Z,9.80
2022-10-20T15:15:07.759Z,10.20
2022-10-20T15:17:43.908Z,13.10
2022-10-20T15:20:31.950Z,14.47
2022-10-20T15:23:19.703Z,19.97
2022-10-20T15:25:52.329Z,13.17
2022-10-20T15:28:38.143Z,16.70
2022-10-20T15:31:15.129Z,15.93
2022-10-20T15:33:42.384Z,16.93
2022-10-20T15:36:15.134Z,10.77
2022-10-20T15:38:45.151Z,11.17
2022-10-20T15:41:20.077Z,9.40
2022-10-20T15:43:47.170Z,9.93
2022-10-20T15:46:16.276Z,12.03
2022-10-20T15:48:43.831Z,11.40
2022-10-20T15:51:31.659Z,10.90
2022-10-20T15:53:58.853Z,8.97
2022-10-20T15:56:26.197Z,12.40
2022-10-20T15:58:53.132Z,11.27
2022-10-20T16:01:21.409Z,17.77
2022-10-20T16:03:48.925Z,15.20
2022-10-20T16:06:17.912Z,13.43
2022-10-20T16:08:47.287Z,16.43
2022-10-20T16:11:15.848Z,14.90
2022-10-20T16:13:42.733Z,11.80
2022-10-20T16:16:13.035Z,9.90
2022-10-20T16:18:39.870Z,12.60
2022-10-20T16:21:07.489Z,12.20
2022-10-20T16:23:42.286Z,14.83
2022-10-20T16:26:13.548Z,17.50
2022-10-20T16:28:40.700Z,12.30
2022-10-20T16:31:12.295Z,15.47
2022-10-20T16:33:39.163Z,13.07
2022-10-20T16:36:09.433Z,12.37
2022-10-20T16:38:39.914Z,13.43
2022-10-20T16:41:10.235Z,12.63
2022-10-20T16:43:38.715Z,13.40
2022-10-20T16:46:07.356Z,13.33
2022-10-20T16:48:36.949Z,7.67
2022-10-20T16:51:10.100Z,7.57
2022-10-20T16:53:37.707Z,9.80
2022-10-20T16:56:05.048Z,10.47
2022-10-20T16:58:31.847Z,11.40
2022-10-20T17:01:00.048Z,10.53
2022-10-20T17:03:27.049Z,9.10
2022-10-20T17:05:58.900Z,9.97
2022-10-20T17:08:26.400Z,13.60
2022-10-20T17:11:04.592Z,11.57
2022-10-20T17:13:32.027Z,12.57
2022-10-20T17:16:21.498Z,11.63
2022-10-20T17:18:51.884Z,8.20
2022-10-20T17:21:18.796Z,10.23
2022-10-20T17:23:46.194Z,15.77
2022-10-20T17:26:24.357Z,12.33
2022-10-20T17:28:54.696Z,11.13
2022-10-20T17:31:22.537Z,10.53
2022-10-20T17:33:49.807Z,8.40
2022-10-20T17:36:17.854Z,8.10
2022-10-20T17:38:45.060Z,7.80
2022-10-20T17:41:14.249Z,10.83
2022-10-20T17:43:41.371Z,9.37
2022-10-20T17:46:13.836Z,8.60
2022-10-20T17:48:41.008Z,11.10
2022-10-20T17:51:17.942Z,9.40
2022-10-20T17:53:47.991Z,12.20
2022-10-20T17:56:18.211Z,9.43
2022-10-20T17:58:46.813Z,5.90
2022-10-20T18:01:20.711Z,8.60
2022-10-20T18:03:52.894Z,9.30
2022-10-20T18:06:22.219Z,13.77
2022-10-20T18:08:49.797Z,10.73
2022-10-20T18:11:20.824Z,6.87
2022-10-20T18:13:47.770Z,12.30
2022-10-20T18:16:17.897Z,11.93
2022-10-20T18:18:45.406Z,14.27
2022-10-20T18:21:14.781Z,11.93
2022-10-20T18:23:45.614Z,7.10
2022-10-20T18:26:16.151Z,10.23
2022-10-20T18:28:47.337Z,14.17
2022-10-20T18:31:35.314Z,38.53
2022-10-20T18:34:08.988Z,20.37
2022-10-20T18:36:40.669Z,23.53
2022-10-20T18:39:13.512Z,16.60
2022-10-20T18:41:43.207Z,18.30
2022-10-20T18:44:18.827Z,12.37
2022-10-20T18:46:46.475Z,18.70
2022-10-20T18:49:15.455Z,13.10
2022-10-20T18:51:42.484Z,14.23
2022-10-20T18:54:09.617Z,23.63
2022-10-20T18:56:36.845Z,18.13
2022-10-20T18:59:16.318Z,14.77
2022-10-20T19:01:43.828Z,13.03
2022-10-20T19:04:12.047Z,12.10
2022-10-20T19:06:42.510Z,11.73
2022-10-20T19:09:12.104Z,16.90
2022-10-20T19:11:40.533Z,13.87
2022-10-20T19:14:11.798Z,17.87
2022-10-20T19:16:39.830Z,11.93
2022-10-20T19:19:08.124Z,14.43
2022-10-20T19:21:36.036Z,10.93
2022-10-20T19:24:09.496Z,12.83
2022-10-20T19:26:39.859Z,14.10
2022-10-20T19:29:10.407Z,21.20
2022-10-20T19:31:59.350Z,11.70
2022-10-20T19:34:36.080Z,15.73
2022-10-20T19:37:04.101Z,10.30
2022-10-20T19:39:34.327Z,11.20
2022-10-20T19:42:03.068Z,13.83
2022-10-20T19:44:30.253Z,10.70
2022-10-20T19:46:57.574Z,15.43
2022-10-20T19:49:25.239Z,12.30
2022-10-20T19:51:52.618Z,12.83
2022-10-20T19:54:24.194Z,10.23
2022-10-20T19:56:51.244Z,12.40
2022-10-20T19:59:18.201Z,12.50
2022-10-20T20:01:45.340Z,15.77
2022-10-20T20:04:12.410Z,11.90
2022-10-20T20:06:39.317Z,12.20
2022-10-20T20:09:09.134Z,9.93
2022-10-20T20:11:37.789Z,15.70
2022-10-20T20:14:06.436Z,26.43
2022-10-20T20:16:35.942Z,8.60
2022-10-20T20:19:03.336Z,17.00
2022-10-20T20:21:30.223Z,15.67
2022-10-20T20:24:00.447Z,9.73
2022-10-20T20:26:29.724Z,16.47
2022-10-20T20:28:57.516Z,10.53
2022-10-20T20:31:25.355Z,14.93
2022-10-20T20:33:53.201Z,18.80
2022-10-20T20:36:21.164Z,12.90
2022-10-20T20:38:49.302Z,15.33
2022-10-20T20:41:18.702Z,17.50
2022-10-20T20:43:45.665Z,25.60
2022-10-20T20:46:15.730Z,14.97
2022-10-20T20:48:43.541Z,12.67
2022-10-20T20:51:11.739Z,13.37
2022-10-20T20:53:39.499Z,16.13
2022-10-20T20:56:15.443Z,9.27
2022-10-20T20:58:45.446Z,14.47
2022-10-20T21:01:18.474Z,14.60
2022-10-20T21:03:46.063Z,17.63
2022-10-20T21:06:18.259Z,12.63
2022-10-20T21:08:49.974Z,16.80
2022-10-20T21:11:19.487Z,18.23
2022-10-20T21:13:48.914Z,15.80
2022-10-20T21:16:17.971Z,12.03
2022-10-20T21:18:48.027Z,12.07
2022-10-20T21:21:36.727Z,9.03
2022-10-20T21:24:05.463Z,8.87
2022-10-20T21:26:33.232Z,10.60
2022-10-20T21:29:00.187Z,8.60
2022-10-20T21:31:28.409Z,15.50
2022-10-20T21:34:00.953Z,12.50
2022-10-20T21:36:29.697Z,11.67
2022-10-20T21:38:57.737Z,10.67
2022-10-20T21:41:27.314Z,15.10
2022-10-20T21:43:56.537Z,26.20
2022-10-20T21:46:45.532Z,19.93
2022-10-20T21:49:14.923Z,17.83
2022-10-20T21:51:45.387Z,16.67
2022-10-20T21:54:18.474Z,18.63
2022-10-20T21:56:46.966Z,21.23
2022-10-20T21:59:20.473Z,18.40
2022-10-20T22:01:48.665Z,16.13
2022-10-20T22:04:16.195Z,20.23
2022-10-20T22:06:43.080Z,16.33
2022-10-20T22:09:12.831Z,25.77
2022-10-20T22:11:45.242Z,18.00
2022-10-20T22:14:12.694Z,15.53
2022-10-20T22:16:41.688Z,10.70
2022-10-20T22:19:16.243Z,13.80
2022-10-20T22:21:45.895Z,17.27
2022-10-20T22:24:13.734Z,9.57
2022-10-20T22:26:40.780Z,8.43
2022-10-20T22:29:09.646Z,14.90
2022-10-20T22:31:37.836Z,13.30
2022-10-20T22:34:05.687Z,14.67
2022-10-20T22:36:32.526Z,13.20
2022-10-20T22:38:59.566Z,17.73
2022-10-20T22:41:26.497Z,15.80
2022-10-20T22:43:53.473Z,18.90
2022-10-20T22:46:20.406Z,14.60
2022-10-20T22:48:47.611Z,14.37
2022-10-20T22:51:15.091Z,12.03
2022-10-20T22:53:42.332Z,14.70
2022-10-20T22:56:12.839Z,21.30
2022-10-20T22:58:40.286Z,19.60
2022-10-20T23:01:12.854Z,12.60
2022-10-20T23:03:39.882Z,9.60
2022-10-20T23:06:08.573Z,20.00
2022-10-20T23:08:44.142Z,22.10
2022-10-20T23:11:12.246Z,19.50
2022-10-20T23:13:39.680Z,17.90
2022-10-20T23:16:07.418Z,32.93
2022-10-20T23:18:34.774Z,24.77
2022-10-20T23:21:01.858Z,30.97
2022-10-20T23:23:28.780Z,35.40
2022-10-20T23:25:57.543Z,18.53
2022-10-20T23:28:26.501Z,27.63
2022-10-20T23:30:53.350Z,24.40
2022-10-20T23:33:20.167Z,12.57
2022-10-20T23:35:47.724Z,21.77
2022-10-20T23:38:14.529Z,20.63
2022-10-20T23:40:41.379Z,17.60
2022-10-20T23:43:08.278Z,14.80
2022-10-20T23:45:37.661Z,16.40
2022-10-20T23:48:04.897Z,21.27
2022-10-20T23:50:31.849Z,32.23
2022-10-20T23:52:58.840Z,33.13
2022-10-20T23:55:36.359Z,13.33
2022-10-20T23:58:03.240Z,14.40
